首页
METAR-TAF:

METAR-TAF

机场 :

雅蒲島國際機場

雅蒲島, 密克罗尼西亚群岛

纬度: 09-29N, 经度: 138-05E, 海拔: 28米

当前天气观测

该预报发布于35分钟前的18:59 UTC
静风
温度 27°C
湿度 89%
气压 1011 hPa
能見度: 19.3公里
散云层高于1600英尺
散云层高于13000英尺
多云层高于30000英尺

METAR: PTYA 231859Z 00000KT 12SM SCT016 SCT130 BKN300 27/25 A2984 RMK SLP105 T02670251

时间: 05:34 (19:34 UTC)

预报

该预报发布于2小时和3分钟前的17:31 UTC
预报有效从23日的 18点(UTC)到 24日的 18点(UTC)
风速5节,风向多变
能見度: 10公里
少量云层高于1600英尺
附近有阵雨

TAF: PTYA 231731Z 2318/2418 VRB05KT P6SM VCSH FEW016

超过4000个机场的气象观测和天气预报(METAR&TAF报告)。

可查询的气象台以黄色和红色小点在地图上表示。

将鼠标移到小点上方,可查看气象台名称。

然后点击查看天气观测和预报。

如需切换地图:点击带黑十字的绿色按钮放大地图;点击带横线的绿色按钮缩小地图;或者点击绿色箭头查看邻近地区的地图。


METAR-TAF: